createdAt,value
2023-02-13T00:00:00.574Z,20.38
2023-02-13T00:00:33.540Z,20.65
2023-02-13T00:01:07.929Z,21.20
2023-02-13T00:01:39.783Z,18.85
2023-02-13T00:02:11.675Z,20.58
2023-02-13T00:02:45.120Z,18.35
2023-02-13T00:03:17.087Z,19.27
2023-02-13T00:03:48.985Z,20.00
2023-02-13T00:04:21.813Z,19.73
2023-02-13T00:04:53.664Z,18.30
2023-02-13T00:05:25.729Z,22.42
2023-02-13T00:05:58.574Z,20.15
2023-02-13T00:06:30.633Z,19.05
2023-02-13T00:07:02.440Z,18.45
2023-02-13T00:07:34.281Z,24.15
2023-02-13T00:08:07.098Z,21.10
2023-02-13T00:08:38.905Z,19.55
2023-02-13T00:09:11.856Z,18.40
2023-02-13T00:09:43.725Z,22.35
2023-02-13T00:10:15.611Z,23.02
2023-02-13T00:10:47.580Z,23.17
2023-02-13T00:11:20.988Z,26.17
2023-02-13T00:11:52.769Z,20.90
2023-02-13T00:12:24.586Z,22.92
2023-02-13T00:12:57.499Z,21.50
2023-02-13T00:13:29.308Z,20.92
2023-02-13T00:14:01.118Z,20.08
2023-02-13T00:14:36.211Z,22.95
2023-02-13T00:15:08.776Z,22.52
2023-02-13T00:15:40.681Z,21.77
2023-02-13T00:16:14.890Z,21.80
2023-02-13T00:16:46.777Z,23.55
2023-02-13T00:17:18.626Z,18.10
2023-02-13T00:17:51.433Z,19.58
2023-02-13T00:18:23.295Z,24.75
2023-02-13T00:18:55.113Z,22.17
2023-02-13T00:19:27.982Z,20.95
2023-02-13T00:19:59.834Z,24.30
2023-02-13T00:20:31.882Z,22.13
2023-02-13T00:21:06.912Z,22.48
2023-02-13T00:21:38.749Z,39.50
2023-02-13T00:22:10.621Z,75.68
2023-02-13T00:22:43.366Z,55.35
2023-02-13T00:23:15.143Z,46.33
2023-02-13T00:23:46.944Z,50.42
2023-02-13T00:24:19.801Z,58.33
2023-02-13T00:24:51.611Z,43.85
2023-02-13T00:25:23.389Z,34.55
2023-02-13T00:25:55.198Z,31.80
2023-02-13T00:26:27.997Z,25.30
2023-02-13T00:26:59.828Z,22.98
2023-02-13T00:27:31.803Z,24.45
2023-02-13T00:28:04.690Z,21.02
2023-02-13T00:28:36.670Z,22.65
2023-02-13T00:29:08.499Z,22.65
2023-02-13T00:29:41.273Z,21.00
2023-02-13T00:30:14.564Z,23.92
2023-02-13T00:30:46.494Z,22.95
2023-02-13T00:31:22.565Z,25.48
2023-02-13T00:31:54.566Z,28.83
2023-02-13T00:32:26.853Z,23.23
2023-02-13T00:32:58.626Z,24.83
2023-02-13T00:33:31.424Z,25.13
2023-02-13T00:34:03.299Z,22.90
2023-02-13T00:34:35.395Z,21.40
2023-02-13T00:35:08.537Z,21.98
2023-02-13T00:35:40.421Z,20.08
2023-02-13T00:36:14.327Z,24.83
2023-02-13T00:36:47.378Z,22.58
2023-02-13T00:37:19.180Z,21.75
2023-02-13T00:37:50.958Z,22.83
2023-02-13T00:38:22.726Z,24.88
2023-02-13T00:38:56.478Z,17.55
2023-02-13T00:39:28.522Z,24.88
2023-02-13T00:40:00.370Z,22.17
2023-02-13T00:40:33.195Z,24.33
2023-02-13T00:41:05.749Z,20.98
2023-02-13T00:41:37.580Z,21.77
2023-02-13T00:42:10.324Z,25.25
2023-02-13T00:42:42.168Z,25.73
2023-02-13T00:43:14.014Z,21.88
2023-02-13T00:43:47.989Z,25.63
2023-02-13T00:44:19.833Z,21.98
2023-02-13T00:44:51.662Z,20.95
2023-02-13T00:45:24.564Z,22.08
2023-02-13T00:45:58.437Z,22.45
2023-02-13T00:46:31.742Z,23.10
2023-02-13T00:47:04.657Z,22.98
2023-02-13T00:47:36.480Z,20.13
2023-02-13T00:48:08.294Z,26.20
2023-02-13T00:48:41.273Z,25.15
2023-02-13T00:49:13.088Z,22.67
2023-02-13T00:49:45.194Z,26.50
2023-02-13T00:50:18.316Z,23.23
2023-02-13T00:50:51.636Z,20.35
2023-02-13T00:51:23.455Z,19.77
2023-02-13T00:51:55.239Z,21.05
2023-02-13T00:52:28.072Z,23.50
2023-02-13T00:52:59.869Z,21.98
2023-02-13T00:53:32.495Z,23.10
2023-02-13T00:54:05.559Z,20.63
2023-02-13T00:54:37.430Z,19.58
2023-02-13T00:55:09.345Z,22.67
2023-02-13T00:55:42.139Z,23.65
2023-02-13T00:56:13.957Z,23.65
2023-02-13T00:56:45.764Z,21.90
2023-02-13T00:57:18.512Z,22.42
2023-02-13T00:57:50.398Z,21.70
2023-02-13T00:58:23.310Z,22.20
2023-02-13T00:58:56.478Z,20.55
2023-02-13T00:59:28.366Z,20.15
2023-02-13T01:00:00.231Z,28.00
2023-02-13T01:00:33.044Z,23.67
2023-02-13T01:01:05.214Z,24.33
2023-02-13T01:01:39.530Z,24.88
2023-02-13T01:02:11.387Z,23.40
2023-02-13T01:02:43.183Z,20.52
2023-02-13T01:03:16.688Z,20.23
2023-02-13T01:03:48.579Z,24.40
2023-02-13T01:04:20.394Z,25.27
2023-02-13T01:04:53.209Z,26.77
2023-02-13T01:05:25.029Z,28.63
2023-02-13T01:05:57.650Z,19.77
2023-02-13T01:06:30.460Z,24.45
2023-02-13T01:07:05.360Z,20.77
2023-02-13T01:07:37.251Z,20.40
2023-02-13T01:08:10.175Z,25.50
2023-02-13T01:08:42.383Z,24.27
2023-02-13T01:09:14.211Z,21.23
2023-02-13T01:09:47.002Z,27.80
2023-02-13T01:10:18.878Z,23.15
2023-02-13T01:10:50.726Z,23.05
2023-02-13T01:11:26.505Z,25.52
2023-02-13T01:11:58.742Z,23.80
2023-02-13T01:12:30.538Z,22.85
2023-02-13T01:13:03.291Z,22.08
2023-02-13T01:13:35.136Z,21.10
2023-02-13T01:14:06.959Z,24.00
2023-02-13T01:14:39.725Z,25.70
2023-02-13T01:15:11.930Z,24.88
2023-02-13T01:15:44.313Z,22.23
2023-02-13T01:16:17.897Z,24.42
2023-02-13T01:16:51.231Z,20.52
2023-02-13T01:17:23.084Z,23.63
2023-02-13T01:17:57.342Z,21.67
2023-02-13T01:18:29.523Z,23.10
2023-02-13T01:19:01.337Z,22.83
2023-02-13T01:19:34.257Z,22.08
2023-02-13T01:20:07.096Z,24.63
2023-02-13T01:20:38.910Z,20.75
2023-02-13T01:21:20.319Z,20.35
2023-02-13T01:21:52.176Z,22.98
2023-02-13T01:22:23.998Z,23.30
2023-02-13T01:22:56.319Z,23.45
2023-02-13T01:23:31.946Z,20.17
2023-02-13T01:24:05.137Z,22.27
2023-02-13T01:24:36.952Z,19.45
2023-02-13T01:25:09.812Z,17.83
2023-02-13T01:25:42.471Z,22.52
2023-02-13T01:26:19.820Z,19.30
2023-02-13T01:26:51.593Z,21.65
2023-02-13T01:27:23.503Z,21.05
2023-02-13T01:27:56.228Z,19.92
2023-02-13T01:28:28.464Z,21.48
2023-02-13T01:29:00.763Z,19.65
2023-02-13T01:29:33.782Z,20.08
2023-02-13T01:30:10.420Z,21.95
2023-02-13T01:30:42.213Z,20.58
2023-02-13T01:31:15.435Z,21.10
2023-02-13T01:31:47.405Z,23.65
2023-02-13T01:32:20.922Z,20.80
2023-02-13T01:32:53.876Z,20.83
2023-02-13T01:33:27.557Z,18.27
2023-02-13T01:33:59.620Z,24.33
2023-02-13T01:34:32.827Z,19.60
2023-02-13T01:35:04.826Z,22.85
2023-02-13T01:35:39.271Z,22.88
2023-02-13T01:36:14.093Z,24.35
2023-02-13T01:36:51.926Z,19.83
2023-02-13T01:37:23.697Z,22.65
2023-02-13T01:37:56.492Z,21.02
2023-02-13T01:38:31.079Z,21.98
2023-02-13T01:39:04.337Z,20.40
2023-02-13T01:39:36.178Z,24.35
2023-02-13T01:40:11.802Z,24.23
2023-02-13T01:40:48.467Z,23.02
2023-02-13T01:41:20.432Z,24.65
2023-02-13T01:41:52.316Z,20.35
2023-02-13T01:42:28.252Z,22.58
2023-02-13T01:43:00.108Z,22.77
2023-02-13T01:43:54.910Z,22.00
2023-02-13T01:44:46.344Z,20.52
2023-02-13T01:45:26.841Z,18.55
2023-02-13T01:45:59.619Z,18.52
2023-02-13T01:46:37.924Z,20.13
2023-02-13T01:47:12.107Z,19.92
2023-02-13T01:47:49.504Z,19.83
2023-02-13T01:48:26.460Z,19.23
2023-02-13T01:49:03.747Z,18.88
2023-02-13T01:49:35.566Z,19.63
2023-02-13T01:50:12.515Z,20.52
2023-02-13T01:50:48.370Z,18.30
2023-02-13T01:51:24.681Z,19.35
2023-02-13T01:51:57.847Z,18.83
2023-02-13T01:52:30.091Z,22.40
2023-02-13T01:53:06.554Z,18.42
2023-02-13T01:53:44.195Z,18.48
2023-02-13T01:54:20.354Z,20.25
2023-02-13T01:54:53.214Z,18.20
2023-02-13T01:55:27.241Z,24.15
2023-02-13T01:56:03.349Z,24.20
2023-02-13T01:56:37.653Z,21.95
2023-02-13T01:57:13.972Z,22.55
2023-02-13T01:57:52.363Z,19.00
2023-02-13T01:58:27.749Z,23.88
2023-02-13T01:59:03.574Z,19.38
2023-02-13T01:59:41.759Z,21.90
2023-02-13T02:00:16.822Z,21.52
2023-02-13T02:00:50.007Z,21.40
2023-02-13T02:01:23.081Z,22.65
2023-02-13T02:01:56.260Z,22.35
2023-02-13T02:02:31.190Z,20.95
2023-02-13T02:03:09.738Z,19.10
2023-02-13T02:03:45.418Z,23.85
2023-02-13T02:04:22.412Z,21.00
2023-02-13T02:04:54.233Z,22.05
2023-02-13T02:05:28.700Z,22.60
2023-02-13T02:06:03.186Z,22.48
2023-02-13T02:06:38.143Z,20.60
2023-02-13T02:07:14.159Z,21.38
2023-02-13T02:07:47.268Z,20.25
2023-02-13T02:08:20.003Z,25.95
2023-02-13T02:08:54.073Z,23.98
2023-02-13T02:09:30.781Z,21.23
2023-02-13T02:10:06.946Z,21.80
2023-02-13T02:10:39.861Z,23.60
2023-02-13T02:11:18.465Z,21.23
2023-02-13T02:11:54.964Z,21.05
2023-02-13T02:12:32.168Z,18.92
2023-02-13T02:13:08.290Z,21.73
2023-02-13T02:13:40.267Z,22.40
2023-02-13T02:14:13.118Z,22.90
2023-02-13T02:14:45.312Z,22.08
2023-02-13T02:15:17.243Z,20.17
2023-02-13T02:15:51.766Z,20.65
2023-02-13T02:16:25.267Z,20.75
2023-02-13T02:16:57.573Z,21.75
2023-02-13T02:17:30.352Z,17.27
2023-02-13T02:18:02.152Z,22.05
2023-02-13T02:18:35.383Z,22.17
2023-02-13T02:19:16.000Z,22.05
2023-02-13T02:19:56.157Z,25.55
2023-02-13T02:21:05.181Z,22.33
2023-02-13T02:22:14.360Z,18.92
2023-02-13T02:23:24.710Z,17.75
2023-02-13T02:24:27.064Z,18.48
2023-02-13T02:25:44.055Z,21.05
2023-02-13T02:26:53.225Z,18.40
2023-02-13T02:28:09.803Z,19.60
2023-02-13T02:29:04.523Z,20.38
2023-02-13T02:30:17.466Z,19.48
2023-02-13T02:31:18.321Z,19.05
2023-02-13T02:32:19.865Z,18.50
2023-02-13T02:33:01.630Z,19.08
2023-02-13T02:33:42.628Z,15.45
2023-02-13T02:34:23.755Z,18.80
2023-02-13T02:35:04.137Z,17.05
2023-02-13T02:35:45.714Z,16.15
2023-02-13T02:36:37.684Z,21.33
2023-02-13T02:37:21.184Z,18.05
2023-02-13T02:38:08.274Z,20.25
2023-02-13T02:38:52.193Z,16.85
2023-02-13T02:39:30.797Z,15.82
2023-02-13T02:40:12.619Z,17.98
2023-02-13T02:40:59.011Z,17.20
2023-02-13T02:41:42.825Z,18.17
2023-02-13T02:42:25.896Z,16.08
2023-02-13T02:43:11.558Z,18.90
2023-02-13T02:43:55.291Z,18.20
2023-02-13T02:44:43.096Z,18.45
2023-02-13T02:45:23.318Z,20.67
2023-02-13T02:46:02.662Z,21.92
2023-02-13T02:46:38.720Z,21.38
2023-02-13T02:47:39.094Z,19.25
2023-02-13T02:48:38.422Z,24.10
2023-02-13T02:49:33.892Z,21.15
2023-02-13T02:50:23.362Z,21.92
2023-02-13T02:51:02.510Z,19.92
2023-02-13T02:51:41.137Z,21.17
2023-02-13T02:52:18.148Z,22.02
2023-02-13T02:53:07.111Z,20.83
2023-02-13T02:53:43.943Z,20.33
2023-02-13T02:54:40.715Z,21.67
2023-02-13T02:55:23.315Z,26.65
2023-02-13T02:56:00.508Z,20.00
2023-02-13T02:56:41.645Z,21.73
2023-02-13T02:57:18.207Z,21.40
2023-02-13T02:58:17.922Z,18.88
2023-02-13T02:59:14.514Z,18.98
2023-02-13T03:00:07.488Z,19.40
2023-02-13T03:01:01.065Z,20.52
2023-02-13T03:01:53.062Z,20.52
2023-02-13T03:02:45.149Z,20.60
2023-02-13T03:03:38.672Z,39.53
2023-02-13T03:04:36.172Z,29.65
2023-02-13T03:05:35.596Z,28.10
2023-02-13T03:06:15.761Z,23.65
2023-02-13T03:06:51.720Z,20.60
2023-02-13T03:07:23.730Z,23.45
2023-02-13T03:07:56.529Z,19.02
2023-02-13T03:08:44.601Z,19.88
2023-02-13T03:09:40.528Z,21.55
2023-02-13T03:10:37.553Z,21.85
2023-02-13T03:11:30.737Z,17.98
2023-02-13T03:12:20.519Z,20.27
2023-02-13T03:13:15.952Z,18.08
2023-02-13T03:13:50.852Z,20.30
2023-02-13T03:14:26.686Z,19.98
2023-02-13T03:14:58.545Z,18.80
2023-02-13T03:15:31.431Z,17.73
2023-02-13T03:16:37.091Z,19.98
2023-02-13T03:17:32.170Z,19.23
2023-02-13T03:18:24.621Z,17.75
2023-02-13T03:19:16.518Z,15.15
2023-02-13T03:20:16.435Z,16.70
2023-02-13T03:21:14.009Z,16.15
2023-02-13T03:22:10.296Z,16.95
2023-02-13T03:22:51.906Z,16.13
2023-02-13T03:23:32.997Z,15.60
2023-02-13T03:24:14.170Z,15.13
2023-02-13T03:24:53.026Z,16.42
2023-02-13T03:25:34.058Z,15.00
2023-02-13T03:26:33.165Z,16.65
2023-02-13T03:27:12.887Z,14.18
2023-02-13T03:28:09.457Z,15.73
2023-02-13T03:29:11.051Z,14.27
2023-02-13T03:30:08.227Z,15.55
2023-02-13T03:30:52.471Z,15.05
2023-02-13T03:31:33.696Z,16.77
2023-02-13T03:32:12.313Z,14.23
2023-02-13T03:32:49.965Z,13.60
2023-02-13T03:33:37.786Z,12.70
2023-02-13T03:34:13.635Z,19.83
2023-02-13T03:35:13.043Z,14.07
2023-02-13T03:36:09.477Z,14.85
2023-02-13T03:37:05.745Z,12.40
2023-02-13T03:37:55.881Z,14.30
2023-02-13T03:38:34.560Z,16.77
2023-02-13T03:39:12.428Z,12.70
2023-02-13T03:39:52.878Z,15.88
2023-02-13T03:40:35.816Z,14.38
2023-02-13T03:41:19.247Z,13.40
2023-02-13T03:41:55.951Z,15.52
2023-02-13T03:42:33.940Z,13.85
2023-02-13T03:43:12.376Z,18.42
2023-02-13T03:43:53.140Z,14.68
2023-02-13T03:44:32.531Z,16.17
2023-02-13T03:45:28.209Z,14.68
2023-02-13T03:46:02.461Z,16.75
2023-02-13T03:46:38.915Z,14.38
2023-02-13T03:47:14.946Z,13.02
2023-02-13T03:47:49.466Z,14.48
2023-02-13T03:48:44.298Z,16.17
2023-02-13T03:49:40.006Z,16.42
2023-02-13T03:50:13.883Z,12.63
2023-02-13T03:50:45.745Z,14.80
2023-02-13T03:51:23.656Z,14.73
2023-02-13T03:52:01.418Z,16.23
2023-02-13T03:52:39.699Z,14.95
2023-02-13T03:53:14.578Z,15.43
2023-02-13T03:53:51.829Z,19.50
2023-02-13T03:54:46.891Z,16.25
2023-02-13T03:55:40.403Z,13.02
2023-02-13T03:56:34.810Z,14.52
2023-02-13T03:57:25.035Z,14.93
2023-02-13T03:58:18.547Z,17.05
2023-02-13T03:59:10.973Z,12.63
2023-02-13T03:59:43.856Z,15.70
2023-02-13T04:00:17.602Z,14.77
2023-02-13T04:00:53.896Z,15.10
2023-02-13T04:01:29.939Z,14.27
2023-02-13T04:02:10.557Z,14.93
2023-02-13T04:02:51.316Z,15.90
2023-02-13T04:03:28.803Z,17.27
2023-02-13T04:04:08.905Z,13.15
2023-02-13T04:04:48.355Z,14.23
2023-02-13T04:05:25.561Z,13.65
2023-02-13T04:06:04.371Z,12.32
2023-02-13T04:06:43.545Z,17.05
2023-02-13T04:07:30.498Z,17.58
2023-02-13T04:08:02.447Z,18.42
2023-02-13T04:08:34.356Z,12.55
2023-02-13T04:09:07.202Z,15.15
2023-02-13T04:09:42.787Z,16.70
2023-02-13T04:10:16.890Z,13.00
2023-02-13T04:10:55.375Z,17.15
2023-02-13T04:11:35.348Z,14.95
2023-02-13T04:12:14.346Z,14.77
2023-02-13T04:12:54.011Z,15.07
2023-02-13T04:13:32.930Z,15.70
2023-02-13T04:14:11.720Z,14.50
2023-02-13T04:14:49.765Z,15.93
2023-02-13T04:15:27.671Z,18.45
2023-02-13T04:16:06.865Z,17.70
2023-02-13T04:16:42.448Z,14.45
2023-02-13T04:17:19.542Z,14.93
2023-02-13T04:17:56.603Z,15.43
2023-02-13T04:18:32.538Z,18.77
2023-02-13T04:19:06.448Z,15.73
2023-02-13T04:19:39.874Z,15.20
2023-02-13T04:20:12.130Z,15.80
2023-02-13T04:20:44.155Z,18.30
2023-02-13T04:21:16.972Z,15.52
2023-02-13T04:21:55.570Z,16.60
2023-02-13T04:22:28.321Z,15.50
2023-02-13T04:23:06.234Z,14.60
2023-02-13T04:23:38.118Z,17.33
2023-02-13T04:24:12.145Z,16.85
2023-02-13T04:24:44.000Z,17.75
2023-02-13T04:25:17.838Z,17.05
2023-02-13T04:25:53.432Z,15.18
2023-02-13T04:26:28.871Z,16.40
2023-02-13T04:27:00.742Z,18.90
2023-02-13T04:27:33.510Z,17.13
2023-02-13T04:28:05.840Z,14.23
2023-02-13T04:28:37.798Z,15.65
2023-02-13T04:29:10.955Z,16.83
2023-02-13T04:29:43.268Z,14.70
2023-02-13T04:30:15.427Z,15.20
2023-02-13T04:30:48.337Z,13.95
2023-02-13T04:31:20.292Z,13.70
2023-02-13T04:31:52.371Z,13.15
2023-02-13T04:32:25.263Z,11.80
2023-02-13T04:32:57.136Z,10.98
2023-02-13T04:33:30.280Z,13.48
2023-02-13T04:34:03.074Z,14.23
2023-02-13T04:34:35.036Z,12.90
2023-02-13T04:35:07.043Z,12.93
2023-02-13T04:35:39.850Z,12.82
2023-02-13T04:36:11.685Z,13.02
2023-02-13T04:36:43.537Z,15.02
2023-02-13T04:37:16.331Z,14.55
2023-02-13T04:37:49.159Z,13.75
2023-02-13T04:38:20.975Z,19.63
2023-02-13T04:38:52.865Z,15.80
2023-02-13T04:39:25.655Z,18.00
2023-02-13T04:39:57.438Z,14.23
2023-02-13T04:40:29.290Z,13.57
2023-02-13T04:41:02.121Z,15.43
2023-02-13T04:41:33.951Z,16.65
2023-02-13T04:42:05.819Z,13.38
2023-02-13T04:42:38.611Z,13.90
2023-02-13T04:43:10.431Z,16.35
2023-02-13T04:43:42.326Z,14.43
2023-02-13T04:44:15.128Z,15.25
2023-02-13T04:44:46.954Z,13.93
2023-02-13T04:45:18.782Z,15.80
2023-02-13T04:45:52.440Z,16.25
2023-02-13T04:46:24.412Z,11.95
2023-02-13T04:46:56.282Z,14.80
2023-02-13T04:47:29.055Z,13.75
2023-02-13T04:48:00.841Z,13.10
2023-02-13T04:48:34.036Z,14.48
2023-02-13T04:49:06.810Z,14.20
2023-02-13T04:49:38.633Z,12.73
2023-02-13T04:50:10.867Z,12.50
2023-02-13T04:50:43.663Z,13.13
2023-02-13T04:51:15.488Z,14.45
2023-02-13T04:51:47.247Z,14.43
2023-02-13T04:52:20.020Z,13.73
2023-02-13T04:52:54.453Z,12.20
2023-02-13T04:53:26.281Z,14.10
2023-02-13T04:53:59.040Z,12.93
2023-02-13T04:54:30.843Z,12.18
2023-02-13T04:55:02.672Z,11.73
2023-02-13T04:55:35.449Z,13.55
2023-02-13T04:56:07.526Z,13.10
2023-02-13T04:56:40.298Z,14.90
2023-02-13T04:57:12.154Z,15.40
2023-02-13T04:57:43.932Z,14.55
2023-02-13T04:58:15.751Z,14.68
2023-02-13T04:58:48.539Z,15.15
2023-02-13T04:59:20.358Z,15.20
2023-02-13T04:59:52.241Z,13.40
2023-02-13T05:00:27.083Z,13.88
2023-02-13T05:00:59.342Z,13.70
2023-02-13T05:01:31.429Z,13.40
2023-02-13T05:02:04.462Z,12.48
2023-02-13T05:02:37.771Z,13.77
2023-02-13T05:03:12.819Z,15.60
2023-02-13T05:03:47.015Z,12.73
2023-02-13T05:04:18.994Z,15.25
2023-02-13T05:04:50.887Z,13.18
2023-02-13T05:05:22.727Z,13.50
2023-02-13T05:05:55.487Z,14.35
2023-02-13T05:06:27.275Z,12.35
2023-02-13T05:06:59.182Z,14.55
2023-02-13T05:07:31.952Z,12.10
2023-02-13T05:08:04.539Z,14.30
2023-02-13T05:08:36.367Z,13.10
2023-02-13T05:09:09.369Z,14.38
2023-02-13T05:09:41.699Z,12.63
2023-02-13T05:10:13.775Z,12.60
2023-02-13T05:10:46.503Z,15.68
2023-02-13T05:11:18.291Z,14.63
2023-02-13T05:11:51.633Z,13.32
2023-02-13T05:12:24.397Z,13.65
2023-02-13T05:12:56.282Z,12.95
2023-02-13T05:13:28.394Z,13.15
2023-02-13T05:14:01.106Z,15.13
2023-02-13T05:14:32.881Z,13.35
2023-02-13T05:15:05.267Z,13.35
2023-02-13T05:15:38.070Z,12.85
2023-02-13T05:16:09.912Z,15.85
2023-02-13T05:16:41.717Z,12.38
2023-02-13T05:17:14.463Z,14.68
2023-02-13T05:17:46.824Z,14.65
2023-02-13T05:18:18.640Z,13.93
2023-02-13T05:18:54.823Z,13.80
2023-02-13T05:19:26.607Z,13.60
2023-02-13T05:19:59.066Z,15.70
2023-02-13T05:20:31.821Z,14.10
2023-02-13T05:21:22.698Z,14.77
2023-02-13T05:22:12.941Z,13.07
2023-02-13T05:23:03.813Z,13.73
2023-02-13T05:23:35.761Z,14.07
2023-02-13T05:24:07.741Z,13.63
2023-02-13T05:24:40.528Z,17.10
2023-02-13T05:25:12.487Z,16.27
2023-02-13T05:25:44.379Z,13.95
2023-02-13T05:26:17.227Z,13.15
2023-02-13T05:26:49.039Z,16.10
2023-02-13T05:27:20.968Z,16.35
2023-02-13T05:27:53.683Z,19.13
2023-02-13T05:28:52.308Z,15.48
2023-02-13T05:29:24.135Z,14.48
2023-02-13T05:29:55.925Z,14.40
2023-02-13T05:30:27.975Z,17.50
2023-02-13T05:31:01.231Z,15.52
2023-02-13T05:31:33.451Z,15.48
2023-02-13T05:32:06.388Z,15.95
2023-02-13T05:32:38.323Z,15.85
2023-02-13T05:33:10.117Z,17.02
2023-02-13T05:33:41.911Z,17.02
2023-02-13T05:34:16.344Z,16.27
2023-02-13T05:34:48.131Z,16.33
2023-02-13T05:35:19.899Z,16.10
2023-02-13T05:35:52.685Z,16.48
2023-02-13T05:36:24.544Z,18.00
2023-02-13T05:36:56.373Z,15.38
2023-02-13T05:37:29.118Z,16.10
2023-02-13T05:38:00.894Z,17.50
2023-02-13T05:38:32.735Z,14.23
2023-02-13T05:39:05.539Z,16.90
2023-02-13T05:39:37.367Z,16.20
2023-02-13T05:40:10.491Z,14.98
2023-02-13T05:40:43.300Z,16.40
2023-02-13T05:41:15.159Z,14.30
2023-02-13T05:41:48.055Z,15.73
2023-02-13T05:42:20.794Z,16.50
2023-02-13T05:42:55.067Z,15.15
2023-02-13T05:43:26.903Z,17.23
2023-02-13T05:43:59.691Z,14.20
2023-02-13T05:44:31.847Z,13.77
2023-02-13T05:45:03.967Z,16.45
2023-02-13T05:45:36.740Z,17.05
2023-02-13T05:46:09.894Z,15.77
2023-02-13T05:46:42.888Z,14.02
2023-02-13T05:47:15.793Z,17.50
2023-02-13T05:47:47.600Z,15.50
2023-02-13T05:48:19.416Z,16.63
2023-02-13T05:48:53.190Z,14.60
2023-02-13T05:49:26.433Z,16.88
2023-02-13T05:49:59.211Z,14.32
2023-02-13T05:50:30.980Z,16.15
2023-02-13T05:51:03.164Z,15.10
2023-02-13T05:51:35.937Z,13.95
2023-02-13T05:52:07.755Z,17.13
2023-02-13T05:52:39.551Z,17.08
2023-02-13T05:53:12.343Z,17.65
2023-02-13T05:53:44.119Z,16.45
2023-02-13T05:54:17.036Z,15.77
2023-02-13T05:54:48.860Z,14.38
2023-02-13T05:55:20.669Z,17.35
2023-02-13T05:55:53.585Z,15.35
2023-02-13T05:56:25.487Z,18.95
2023-02-13T05:56:57.337Z,17.60
2023-02-13T05:57:30.082Z,20.15
2023-02-13T05:58:01.903Z,16.90
2023-02-13T05:58:34.318Z,17.52
2023-02-13T05:59:06.792Z,18.83
2023-02-13T05:59:39.595Z,18.55
2023-02-13T06:00:12.450Z,19.02
2023-02-13T06:00:44.386Z,15.10
2023-02-13T06:01:17.206Z,18.98
2023-02-13T06:01:48.983Z,18.67
2023-02-13T06:02:21.788Z,19.02
2023-02-13T06:02:53.615Z,18.02
2023-02-13T06:03:26.158Z,18.00
2023-02-13T06:04:00.503Z,16.33
2023-02-13T06:04:35.230Z,18.85
2023-02-13T06:05:07.371Z,17.77
2023-02-13T06:05:40.162Z,18.40
2023-02-13T06:06:11.951Z,17.88
2023-02-13T06:06:45.425Z,16.77
2023-02-13T06:07:17.601Z,19.15
2023-02-13T06:07:49.378Z,17.17
2023-02-13T06:08:22.414Z,20.00
2023-02-13T06:08:54.497Z,15.65
2023-02-13T06:09:27.376Z,17.38
2023-02-13T06:09:59.616Z,17.30
2023-02-13T06:10:31.449Z,18.25
2023-02-13T06:11:04.695Z,16.63
2023-02-13T06:11:36.503Z,17.08
2023-02-13T06:12:09.328Z,17.40
2023-02-13T06:12:42.623Z,17.20
2023-02-13T06:13:14.911Z,19.13
2023-02-13T06:13:47.969Z,15.93
2023-02-13T06:14:19.801Z,15.20
2023-02-13T06:14:51.633Z,15.73
2023-02-13T06:15:24.561Z,17.10
2023-02-13T06:15:56.550Z,17.35
2023-02-13T06:16:30.927Z,17.05
2023-02-13T06:17:03.698Z,20.70
2023-02-13T06:17:35.527Z,17.27
2023-02-13T06:18:07.861Z,15.63
2023-02-13T06:18:39.763Z,17.40
2023-02-13T06:19:12.523Z,16.73
2023-02-13T06:19:45.665Z,18.02
2023-02-13T06:20:17.683Z,18.75
2023-02-13T06:20:50.630Z,18.05
2023-02-13T06:21:22.718Z,17.58
2023-02-13T06:21:55.518Z,17.23
2023-02-13T06:22:27.400Z,14.98
2023-02-13T06:22:59.203Z,15.93
2023-02-13T06:23:32.258Z,16.48
2023-02-13T06:24:04.654Z,14.98
2023-02-13T06:24:37.454Z,15.07
2023-02-13T06:25:09.296Z,14.52
2023-02-13T06:25:42.237Z,18.23
2023-02-13T06:26:14.148Z,15.88
2023-02-13T06:26:45.982Z,17.63
2023-02-13T06:27:18.748Z,18.30
2023-02-13T06:27:50.601Z,18.17
2023-02-13T06:28:22.608Z,18.42
2023-02-13T06:28:55.402Z,17.42
2023-02-13T06:29:27.231Z,16.95
2023-02-13T06:29:59.045Z,17.15
2023-02-13T06:30:32.566Z,16.27
2023-02-13T06:31:04.951Z,17.42
2023-02-13T06:31:37.940Z,18.20
2023-02-13T06:32:09.772Z,18.02
2023-02-13T06:32:41.772Z,17.30
2023-02-13T06:33:14.733Z,16.52
2023-02-13T06:33:46.548Z,15.85
2023-02-13T06:34:18.361Z,17.02
2023-02-13T06:34:52.514Z,17.50
2023-02-13T06:35:24.432Z,17.60
2023-02-13T06:35:56.244Z,19.38
2023-02-13T06:36:29.051Z,18.95
2023-02-13T06:37:00.827Z,19.70
2023-02-13T06:37:32.939Z,18.10
2023-02-13T06:38:05.764Z,18.60
2023-02-13T06:38:37.583Z,18.63
2023-02-13T06:39:10.184Z,18.05
2023-02-13T06:39:42.958Z,17.55
2023-02-13T06:40:15.968Z,19.08
2023-02-13T06:40:48.244Z,17.05
2023-02-13T06:41:21.028Z,19.63
2023-02-13T06:41:52.840Z,19.60
2023-02-13T06:42:24.865Z,19.27
2023-02-13T06:42:57.631Z,18.50
2023-02-13T06:43:29.479Z,23.05
2023-02-13T06:44:02.247Z,19.27
2023-02-13T06:44:34.070Z,18.90
2023-02-13T06:45:07.111Z,17.08
2023-02-13T06:45:39.940Z,18.50
2023-02-13T06:46:11.891Z,17.85
2023-02-13T06:46:43.761Z,18.63
2023-02-13T06:47:16.661Z,18.52
2023-02-13T06:47:48.836Z,18.60
2023-02-13T06:48:20.782Z,19.20
2023-02-13T06:48:53.621Z,21.15
2023-02-13T06:49:25.540Z,19.85
2023-02-13T06:49:58.713Z,18.95
2023-02-13T06:50:31.560Z,21.35
2023-02-13T06:51:03.701Z,20.48
2023-02-13T06:51:36.667Z,18.73
2023-02-13T06:52:08.578Z,19.35
2023-02-13T06:52:45.462Z,19.08
2023-02-13T06:53:18.250Z,16.85
2023-02-13T06:53:50.490Z,20.85
2023-02-13T06:54:31.559Z,17.15
2023-02-13T06:55:13.077Z,16.63
2023-02-13T06:55:45.875Z,16.80
2023-02-13T06:56:17.717Z,19.27
2023-02-13T06:56:49.496Z,18.63
2023-02-13T06:57:22.271Z,16.65
2023-02-13T06:57:54.097Z,15.70
2023-02-13T06:58:26.330Z,16.45
2023-02-13T06:58:59.156Z,17.48
2023-02-13T06:59:30.937Z,18.33
2023-02-13T07:00:05.798Z,17.23
2023-02-13T07:00:38.642Z,16.20
2023-02-13T07:01:10.625Z,17.75
2023-02-13T07:01:42.499Z,16.90
2023-02-13T07:02:15.273Z,18.10
2023-02-13T07:02:48.048Z,15.23
2023-02-13T07:03:20.938Z,18.88
2023-02-13T07:03:52.863Z,16.30
2023-02-13T07:04:25.906Z,17.42
2023-02-13T07:04:59.167Z,20.48
2023-02-13T07:05:32.122Z,17.02
2023-02-13T07:06:04.233Z,17.25
2023-02-13T07:06:36.060Z,20.02
2023-02-13T07:07:08.824Z,17.77
2023-02-13T07:07:42.152Z,20.40
2023-02-13T07:08:14.093Z,20.42
2023-02-13T07:08:47.257Z,19.20
2023-02-13T07:09:19.045Z,20.13
2023-02-13T07:09:52.023Z,18.83
2023-02-13T07:10:24.143Z,19.20
2023-02-13T07:10:57.233Z,17.50
2023-02-13T07:11:29.199Z,17.45
2023-02-13T07:12:03.554Z,18.75
2023-02-13T07:12:36.847Z,19.23
2023-02-13T07:13:09.293Z,20.65
2023-02-13T07:13:43.744Z,19.70
2023-02-13T07:14:15.541Z,18.08
2023-02-13T07:14:47.376Z,21.55
2023-02-13T07:15:20.340Z,29.80
2023-02-13T07:15:52.409Z,19.27
2023-02-13T07:16:24.355Z,19.45
2023-02-13T07:16:57.798Z,19.42
2023-02-13T07:17:30.026Z,17.48
2023-02-13T07:18:03.321Z,19.05
2023-02-13T07:18:37.028Z,18.05
2023-02-13T07:19:10.354Z,21.77
2023-02-13T07:19:42.128Z,19.02
2023-02-13T07:20:15.532Z,21.60
2023-02-13T07:20:48.280Z,18.40
2023-02-13T07:21:20.072Z,21.13
2023-02-13T07:21:51.912Z,19.15
2023-02-13T07:22:24.723Z,22.50
2023-02-13T07:22:58.829Z,19.88
2023-02-13T07:23:30.635Z,19.73
2023-02-13T07:24:03.538Z,19.02
2023-02-13T07:24:35.434Z,19.00
2023-02-13T07:25:07.795Z,19.52
2023-02-13T07:25:40.626Z,20.55
2023-02-13T07:26:12.465Z,17.90
2023-02-13T07:26:44.293Z,18.35
2023-02-13T07:27:17.276Z,22.33
2023-02-13T07:27:49.100Z,16.35
2023-02-13T07:28:21.873Z,19.77
2023-02-13T07:29:09.146Z,17.63
2023-02-13T07:29:43.439Z,20.08
2023-02-13T07:30:15.761Z,17.67
2023-02-13T07:30:48.520Z,20.67
2023-02-13T07:31:20.452Z,18.20
2023-02-13T07:31:53.283Z,20.42
2023-02-13T07:32:25.690Z,20.35
2023-02-13T07:32:59.702Z,24.10
2023-02-13T07:33:32.640Z,18.75
2023-02-13T07:34:04.444Z,19.23
2023-02-13T07:34:37.223Z,19.77
2023-02-13T07:35:09.168Z,20.75
2023-02-13T07:35:47.740Z,20.25
2023-02-13T07:36:19.573Z,18.70
2023-02-13T07:36:52.437Z,19.27
2023-02-13T07:37:24.328Z,20.73
2023-02-13T07:37:57.173Z,19.55
2023-02-13T07:38:29.161Z,19.95